Time;durP1;ratioP1;P1;durP2;ratioP2;P2;SDS_P1;SDS_P2;PMS_P1;PMS_P2;Temp;Humidity;BMP_temperature;BMP_pressure;BME280_temperature;BME280_humidity;BME280_pressure;Samples;Min_cycle;Max_cycle;Signal;HPM_P1;HPM_P2
2022/09/17 00:02:01;;;;;;;4.95;2.80;;;7.30;99.90;;;;;;5049045;28;20035;-47
2022/09/17 00:04:27;;;;;;;6.53;3.58;;;7.20;99.90;;;;;;5049690;28;20499;-49
2022/09/17 00:06:53;;;;;;;8.20;3.38;;;7.20;99.90;;;;;;5050391;28;20037;-46
2022/09/17 00:09:18;;;;;;;10.77;3.65;;;7.20;99.90;;;;;;5050588;28;20128;-47
2022/09/17 00:11:44;;;;;;;6.95;3.28;;;7.10;99.90;;;;;;5048987;28;20514;-46
2022/09/17 00:14:14;;;;;;;10.73;3.50;;;7.10;99.90;;;;;;5048843;28;20017;-47
2022/09/17 00:16:43;;;;;;;8.57;3.88;;;7.00;99.90;;;;;;5048503;28;20100;-53
2022/09/17 00:19:21;;;;;;;8.70;3.57;;;7.00;99.90;;;;;;5049789;28;20083;-46
2022/09/17 00:21:48;;;;;;;6.43;3.35;;;6.90;99.90;;;;;;5049870;28;20029;-46
2022/09/17 00:24:15;;;;;;;8.32;3.20;;;6.90;99.90;;;;;;5047395;28;20104;-47
2022/09/17 00:26:41;;;;;;;7.93;3.65;;;6.90;99.90;;;;;;5049868;28;20108;-49
2022/09/17 00:29:08;;;;;;;7.07;3.50;;;6.90;99.90;;;;;;5048910;28;20017;-47
2022/09/17 00:31:34;;;;;;;5.35;3.03;;;6.90;99.90;;;;;;5049707;28;20422;-50
2022/09/17 00:34:01;;;;;;;8.07;3.75;;;6.90;99.90;;;;;;5048990;28;20033;-49
2022/09/17 00:36:27;;;;;;;5.38;3.33;;;7.00;99.90;;;;;;5048667;28;20040;-48
2022/09/17 00:38:55;;;;;;;7.72;3.67;;;7.00;99.90;;;;;;5049547;28;20396;-50
2022/09/17 00:41:22;;;;;;;5.05;3.05;;;7.00;99.90;;;;;;5048847;28;20046;-51
2022/09/17 00:43:52;;;;;;;6.00;3.10;;;7.00;99.90;;;;;;5048934;28;20079;-46
2022/09/17 00:46:34;;;;;;;4.82;2.83;;;7.00;99.90;;;;;;5048263;28;20060;-51
2022/09/17 00:49:15;;;;;;;5.72;3.00;;;7.00;99.90;;;;;;5063532;28;20028;-51
2022/09/17 00:51:56;;;;;;;8.25;3.20;;;7.00;99.90;;;;;;5048157;28;20074;-50
2022/09/17 00:54:23;;;;;;;4.45;2.70;;;7.00;99.90;;;;;;5047953;28;20032;-46
2022/09/17 00:56:51;;;;;;;6.95;2.50;;;7.10;99.90;;;;;;5048703;28;20399;-49
2022/09/17 00:59:18;;;;;;;7.00;2.60;;;7.10;99.90;;;;;;5047049;28;20021;-48
2022/09/17 01:01:45;;;;;;;5.18;2.38;;;7.20;99.90;;;;;;5048428;28;20056;-46
2022/09/17 01:04:18;;;;;;;8.60;2.55;;;7.20;99.90;;;;;;5046254;28;20421;-50
2022/09/17 01:07:05;;;;;;;6.40;2.38;;;7.20;99.90;;;;;;5045693;28;20048;-51
2022/09/17 01:09:47;;;;;;;6.88;2.38;;;7.20;99.90;;;;;;5046984;28;20028;-49
2022/09/17 01:12:44;;;;;;;6.88;2.25;;;7.20;99.90;;;;;;5048044;28;20029;-47
2022/09/17 01:15:27;;;;;;;5.25;2.00;;;7.30;99.90;;;;;;5047326;28;20062;-46
2022/09/17 01:18:09;;;;;;;6.72;2.47;;;7.30;99.90;;;;;;5047124;28;20071;-48
2022/09/17 01:20:50;;;;;;;6.97;2.08;;;7.30;99.90;;;;;;5047857;28;20060;-49
2022/09/17 01:23:38;;;;;;;4.70;2.10;;;7.30;99.90;;;;;;5049204;28;20083;-48
2022/09/17 01:26:40;;;;;;;6.43;2.35;;;7.30;99.90;;;;;;5049255;28;20040;-52
2022/09/17 01:29:31;;;;;;;4.40;1.98;;;7.30;99.90;;;;;;5051642;28;20491;-46
2022/09/17 01:32:19;;;;;;;7.88;2.00;;;7.30;99.90;;;;;;5054171;28;20033;-48
2022/09/17 01:35:00;;;;;;;6.13;2.22;;;7.20;99.90;;;;;;5053511;28;20025;-48
2022/09/17 01:37:40;;;;;;;6.65;2.10;;;7.20;99.90;;;;;;5051865;28;20569;-47
2022/09/17 01:40:17;;;;;;;4.15;2.10;;;7.20;99.90;;;;;;5052564;28;20029;-46
2022/09/17 01:42:51;;;;;;;3.17;1.70;;;7.20;99.90;;;;;;5051479;28;20136;-46
2022/09/17 01:45:34;;;;;;;5.30;2.30;;;7.10;99.90;;;;;;5051214;28;20078;-47
2022/09/17 01:48:12;;;;;;;6.72;2.20;;;7.20;99.90;;;;;;5053035;28;20139;-49
2022/09/17 01:50:59;;;;;;;4.40;2.13;;;7.20;99.90;;;;;;5051414;28;20135;-47
2022/09/17 01:53:44;;;;;;;4.03;2.22;;;7.20;99.90;;;;;;5053197;28;20487;-49
2022/09/17 01:56:15;;;;;;;3.75;1.60;;;7.10;99.90;;;;;;5052053;28;20021;-52
2022/09/17 01:58:50;;;;;;;7.07;2.40;;;7.20;99.90;;;;;;5051351;28;20021;-48
2022/09/17 02:01:20;;;;;;;5.47;2.08;;;7.10;99.90;;;;;;5052632;28;20055;-49
2022/09/17 02:03:57;;;;;;;4.25;2.42;;;7.10;99.90;;;;;;5053646;28;20021;-50
2022/09/17 02:06:28;;;;;;;4.65;2.45;;;7.10;99.90;;;;;;5044755;28;20029;-52
2022/09/17 02:08:59;;;;;;;4.20;2.03;;;7.00;99.90;;;;;;5051067;28;20024;-48
2022/09/17 02:11:25;;;;;;;6.05;2.33;;;7.00;99.90;;;;;;5052242;28;20075;-48
2022/09/17 02:14:01;;;;;;;6.03;2.20;;;7.00;99.90;;;;;;5052531;28;20057;-46
2022/09/17 02:16:31;;;;;;;5.07;2.38;;;6.90;99.90;;;;;;5050931;28;20028;-47
2022/09/17 02:19:09;;;;;;;4.20;2.10;;;6.90;99.90;;;;;;5051389;28;20032;-47
2022/09/17 02:22:02;;;;;;;4.07;2.08;;;6.80;99.90;;;;;;5052506;28;20565;-46
2022/09/17 02:24:41;;;;;;;4.22;2.03;;;6.90;99.90;;;;;;5051925;28;20021;-50
2022/09/17 02:27:16;;;;;;;6.50;2.00;;;6.80;99.90;;;;;;5051677;28;20098;-47
2022/09/17 02:29:43;;;;;;;5.38;2.10;;;6.80;99.90;;;;;;5051355;28;20021;-51
2022/09/17 02:32:10;;;;;;;5.85;1.98;;;6.80;99.90;;;;;;5051904;28;20025;-47
2022/09/17 02:34:36;;;;;;;5.38;1.55;;;6.80;99.90;;;;;;5051986;28;20089;-51
2022/09/17 02:37:03;;;;;;;4.85;1.67;;;6.80;99.90;;;;;;5049936;28;20469;-52
2022/09/17 02:39:29;;;;;;;4.85;2.15;;;6.90;99.90;;;;;;5051030;28;20025;-51
2022/09/17 02:42:40;;;;;;;5.60;1.77;;;6.90;99.90;;;;;;5051673;28;20333;-54
2022/09/17 02:45:09;;;;;;;4.28;1.50;;;6.90;99.90;;;;;;5049480;28;20048;-49
2022/09/17 02:47:41;;;;;;;3.78;1.60;;;7.00;99.90;;;;;;5047249;28;20087;-48
2022/09/17 02:50:09;;;;;;;4.72;1.50;;;7.00;99.90;;;;;;5051424;28;20109;-49
2022/09/17 02:52:58;;;;;;;5.90;1.67;;;7.00;99.90;;;;;;5050289;28;20503;-52
2022/09/17 02:55:26;;;;;;;5.70;1.60;;;7.00;99.90;;;;;;5046297;28;20529;-50
2022/09/17 02:58:15;;;;;;;2.58;1.38;;;7.00;99.90;;;;;;5052494;28;20523;-50
2022/09/17 03:00:42;;;;;;;6.07;1.75;;;7.10;99.90;;;;;;5051647;28;20036;-49
2022/09/17 03:03:27;;;;;;;2.83;1.40;;;7.10;99.90;;;;;;5052327;28;20036;-53
2022/09/17 03:05:55;;;;;;;2.78;1.48;;;7.10;99.90;;;;;;5052537;28;20107;-50
2022/09/17 03:08:28;;;;;;;3.75;1.52;;;7.10;99.90;;;;;;5052471;28;20095;-51
2022/09/17 03:10:54;;;;;;;6.63;2.00;;;7.10;99.90;;;;;;5052507;28;20074;-51
2022/09/17 03:13:19;;;;;;;4.10;1.52;;;7.20;99.90;;;;;;5052244;28;20036;-50
2022/09/17 03:15:45;;;;;;;3.20;1.60;;;7.10;99.90;;;;;;5052338;28;20032;-48
2022/09/17 03:18:11;;;;;;;5.60;1.70;;;7.10;99.90;;;;;;5052418;28;20028;-45
2022/09/17 03:20:36;;;;;;;5.75;2.17;;;7.10;99.90;;;;;;5052269;28;20135;-48
2022/09/17 03:23:02;;;;;;;3.78;1.58;;;7.10;99.90;;;;;;5052200;28;20021;-55
2022/09/17 03:25:28;;;;;;;5.05;1.50;;;7.10;99.90;;;;;;5052065;28;20111;-47
2022/09/17 03:27:53;;;;;;;3.30;1.73;;;7.00;99.90;;;;;;5052093;28;20523;-49
2022/09/17 03:30:19;;;;;;;3.63;1.70;;;7.00;99.90;;;;;;5052154;28;20021;-47
2022/09/17 03:32:45;;;;;;;4.30;1.70;;;7.00;99.90;;;;;;5051980;28;20140;-47
2022/09/17 03:35:10;;;;;;;4.50;1.67;;;6.90;99.90;;;;;;5052048;28;20051;-51
2022/09/17 03:37:36;;;;;;;3.58;1.70;;;7.00;99.90;;;;;;5052146;28;20074;-47
2022/09/17 03:40:02;;;;;;;5.65;2.10;;;6.90;99.90;;;;;;5052129;28;20071;-47
2022/09/17 03:42:27;;;;;;;5.10;1.92;;;6.90;99.90;;;;;;5051589;28;20480;-49
2022/09/17 03:44:53;;;;;;;4.63;1.60;;;6.90;99.90;;;;;;5051609;28;20123;-47
2022/09/17 03:47:18;;;;;;;4.30;1.60;;;6.90;99.90;;;;;;5051843;28;20076;-48
2022/09/17 03:49:44;;;;;;;4.57;2.00;;;6.90;99.90;;;;;;5049909;28;20063;-53
2022/09/17 03:52:10;;;;;;;5.35;1.73;;;6.90;99.90;;;;;;5050378;28;20036;-48
2022/09/17 03:54:35;;;;;;;4.32;1.80;;;6.80;99.90;;;;;;5051524;28;20017;-47
2022/09/17 03:57:01;;;;;;;3.38;1.58;;;6.80;99.90;;;;;;5051555;28;20051;-49
2022/09/17 03:59:26;;;;;;;3.15;1.52;;;6.80;99.90;;;;;;5051643;28;20037;-47
2022/09/17 04:01:52;;;;;;;5.13;2.05;;;6.80;99.90;;;;;;5051352;28;20021;-49
2022/09/17 04:04:17;;;;;;;4.80;2.05;;;6.80;99.90;;;;;;5051478;28;20033;-49
2022/09/17 04:06:43;;;;;;;6.63;1.98;;;6.70;99.90;;;;;;5051265;28;20044;-47
2022/09/17 04:09:09;;;;;;;5.55;1.90;;;6.70;99.90;;;;;;5051721;28;20033;-46
2022/09/17 04:11:34;;;;;;;4.00;2.08;;;6.60;99.90;;;;;;5051624;28;20468;-49
2022/09/17 04:14:00;;;;;;;5.47;2.35;;;6.60;99.90;;;;;;5051079;28;20036;-47
2022/09/17 04:16:25;;;;;;;4.53;1.90;;;6.50;99.90;;;;;;5051491;28;20025;-49
2022/09/17 04:18:51;;;;;;;2.95;1.50;;;6.50;99.90;;;;;;5051205;28;20384;-47
2022/09/17 04:21:17;;;;;;;3.38;1.60;;;6.50;99.90;;;;;;5051263;28;20064;-50
2022/09/17 04:23:42;;;;;;;3.72;1.85;;;6.50;99.90;;;;;;5051245;28;20017;-49
2022/09/17 04:26:08;;;;;;;5.18;1.77;;;6.50;99.90;;;;;;5051142;28;20025;-53
2022/09/17 04:28:34;;;;;;;5.78;1.88;;;6.50;99.90;;;;;;5051189;28;20025;-47
2022/09/17 04:30:59;;;;;;;3.63;1.75;;;6.60;99.90;;;;;;5051028;28;20025;-48
2022/09/17 04:33:25;;;;;;;4.10;1.50;;;6.60;99.90;;;;;;5051033;28;20025;-50
2022/09/17 04:35:52;;;;;;;3.35;1.40;;;6.60;99.90;;;;;;5051017;28;20025;-48
2022/09/17 04:38:19;;;;;;;5.70;2.00;;;6.60;99.90;;;;;;5051021;28;20025;-50
2022/09/17 04:40:45;;;;;;;6.25;1.90;;;6.60;99.90;;;;;;5051056;28;20044;-53
2022/09/17 04:43:11;;;;;;;5.00;1.70;;;6.60;99.90;;;;;;5050664;28;20032;-50
2022/09/17 04:45:37;;;;;;;4.63;1.70;;;6.60;99.90;;;;;;5050789;28;20055;-54
2022/09/17 04:48:03;;;;;;;6.40;1.73;;;6.60;99.90;;;;;;5050665;28;20104;-47
2022/09/17 04:50:29;;;;;;;7.18;1.85;;;6.60;99.90;;;;;;5050891;28;20025;-48
2022/09/17 04:52:55;;;;;;;3.92;1.40;;;6.60;99.90;;;;;;5050860;28;20029;-48
2022/09/17 04:55:21;;;;;;;3.50;1.75;;;6.60;99.90;;;;;;5051010;28;20039;-47
2022/09/17 04:57:51;;;;;;;4.25;1.92;;;6.60;99.90;;;;;;5050678;28;20497;-48
2022/09/17 05:00:18;;;;;;;5.65;1.73;;;6.60;99.90;;;;;;5050824;28;20593;-51
2022/09/17 05:02:46;;;;;;;7.68;1.88;;;6.50;99.90;;;;;;5052951;28;20029;-49
2022/09/17 05:05:12;;;;;;;3.63;1.83;;;6.50;99.90;;;;;;5054800;28;20483;-47
2022/09/17 05:07:39;;;;;;;4.05;1.95;;;6.50;99.90;;;;;;5054814;28;20545;-53
2022/09/17 05:10:06;;;;;;;2.95;1.70;;;6.50;99.90;;;;;;5054687;28;20124;-49
2022/09/17 05:12:31;;;;;;;2.88;1.50;;;6.40;99.90;;;;;;5054553;28;20033;-50
2022/09/17 05:14:57;;;;;;;6.35;2.00;;;6.40;99.90;;;;;;5054697;28;20032;-48
2022/09/17 05:17:23;;;;;;;4.97;1.80;;;6.40;99.90;;;;;;5054322;28;20109;-56
2022/09/17 05:19:48;;;;;;;6.07;1.80;;;6.50;99.90;;;;;;5054314;28;20153;-46
2022/09/17 05:22:14;;;;;;;3.28;1.73;;;6.40;99.90;;;;;;5053988;28;20048;-47
2022/09/17 05:24:39;;;;;;;5.55;1.92;;;6.40;99.90;;;;;;5054690;28;20051;-54
2022/09/17 05:27:07;;;;;;;4.35;1.50;;;6.30;99.90;;;;;;5054281;28;20072;-47
2022/09/17 05:29:33;;;;;;;4.85;1.95;;;6.30;99.90;;;;;;5054449;28;20422;-47
2022/09/17 05:31:58;;;;;;;2.60;1.38;;;6.30;99.90;;;;;;5054448;28;20029;-47
2022/09/17 05:34:24;;;;;;;4.05;1.75;;;6.20;99.90;;;;;;5054170;28;20096;-48
2022/09/17 05:36:50;;;;;;;3.67;1.65;;;6.30;99.90;;;;;;5054049;28;20029;-47
2022/09/17 05:39:16;;;;;;;5.15;1.73;;;6.30;99.90;;;;;;5054023;28;20028;-55
2022/09/17 05:41:42;;;;;;;3.83;1.70;;;6.30;99.90;;;;;;5054271;28;20070;-47
2022/09/17 05:44:07;;;;;;;3.95;1.70;;;6.40;99.90;;;;;;5054162;28;20041;-50
2022/09/17 05:46:33;;;;;;;4.30;1.65;;;6.40;99.90;;;;;;5053632;28;20483;-50
2022/09/17 05:48:58;;;;;;;4.88;1.80;;;6.30;99.90;;;;;;5054348;28;20167;-47
2022/09/17 05:51:24;;;;;;;3.47;1.80;;;6.30;99.90;;;;;;5053536;28;20028;-46
2022/09/17 05:53:50;;;;;;;4.20;1.33;;;6.40;99.90;;;;;;5053890;28;20021;-47
2022/09/17 05:56:15;;;;;;;3.20;1.50;;;6.40;99.90;;;;;;5053333;28;20028;-52
2022/09/17 05:58:41;;;;;;;5.00;2.05;;;6.50;99.90;;;;;;5053014;28;20071;-47
2022/09/17 06:01:06;;;;;;;5.45;1.98;;;6.50;99.90;;;;;;5050731;28;20020;-47
2022/09/17 06:03:32;;;;;;;5.60;1.70;;;6.60;99.90;;;;;;5048855;28;20033;-51
2022/09/17 06:05:59;;;;;;;2.55;1.50;;;6.60;99.90;;;;;;5052883;28;20033;-48
2022/09/17 06:08:26;;;;;;;4.15;1.63;;;6.60;99.90;;;;;;5052788;28;20023;-50
2022/09/17 06:10:53;;;;;;;2.72;1.48;;;6.70;99.90;;;;;;5052950;28;20021;-47
2022/09/17 06:13:19;;;;;;;5.20;1.52;;;6.70;99.90;;;;;;5052450;28;20021;-48
2022/09/17 06:15:52;;;;;;;4.80;1.70;;;6.70;99.90;;;;;;5052442;28;20579;-53
2022/09/17 06:18:18;;;;;;;4.10;1.80;;;6.80;99.90;;;;;;5051833;28;20029;-48
2022/09/17 06:21:01;;;;;;;2.95;1.30;;;6.80;99.90;;;;;;5052747;28;20092;-52
2022/09/17 06:23:29;;;;;;;6.38;1.83;;;6.90;99.90;;;;;;5044929;28;20023;-51
2022/09/17 06:25:57;;;;;;;5.40;1.70;;;6.90;99.90;;;;;;5050149;28;20028;-49
2022/09/17 06:28:23;;;;;;;3.45;1.67;;;6.90;99.90;;;;;;5052340;28;20029;-51
2022/09/17 06:30:51;;;;;;;4.40;2.10;;;7.00;99.90;;;;;;5042251;28;20021;-47
2022/09/17 06:33:17;;;;;;;3.97;1.58;;;7.00;99.90;;;;;;5050506;28;20100;-51
2022/09/17 06:35:42;;;;;;;3.85;1.50;;;7.00;99.90;;;;;;5046454;28;20150;-48
2022/09/17 06:38:08;;;;;;;3.33;1.30;;;7.10;99.90;;;;;;5041442;28;20030;-50
2022/09/17 06:40:34;;;;;;;5.72;1.70;;;7.10;99.90;;;;;;5049686;28;20438;-49
2022/09/17 06:43:00;;;;;;;3.35;1.48;;;7.20;99.90;;;;;;5053000;28;20117;-51
2022/09/17 06:45:26;;;;;;;2.72;1.60;;;7.20;99.90;;;;;;5043602;28;20041;-48
2022/09/17 06:47:52;;;;;;;6.65;1.77;;;7.30;99.90;;;;;;5050588;28;20067;-48
2022/09/17 06:50:17;;;;;;;4.80;1.60;;;7.30;99.90;;;;;;5047198;28;20064;-52
2022/09/17 06:52:51;;;;;;;4.15;1.52;;;7.40;99.90;;;;;;5052740;28;20035;-53
2022/09/17 06:55:17;;;;;;;3.22;1.65;;;7.50;99.90;;;;;;5043112;28;20032;-47
2022/09/17 06:57:44;;;;;;;4.25;1.90;;;7.50;99.90;;;;;;5050802;28;20043;-50
2022/09/17 07:00:11;;;;;;;4.68;1.67;;;7.50;99.90;;;;;;5052258;28;20040;-47
2022/09/17 07:02:36;;;;;;;6.70;1.70;;;7.60;99.90;;;;;;5052657;28;20536;-50
2022/09/17 07:05:02;;;;;;;3.42;1.38;;;7.70;99.90;;;;;;5051250;28;20029;-50
2022/09/17 07:07:28;;;;;;;3.60;1.50;;;7.90;99.90;;;;;;5051997;28;20071;-52
2022/09/17 07:09:54;;;;;;;4.13;1.75;;;8.00;99.90;;;;;;5040035;28;20034;-48
2022/09/17 07:12:20;;;;;;;3.90;1.50;;;8.00;99.90;;;;;;5044489;28;20021;-47
2022/09/17 07:14:49;;;;;;;3.33;1.58;;;8.20;99.90;;;;;;5050647;28;20017;-53
2022/09/17 07:17:15;;;;;;;2.58;1.35;;;8.30;99.90;;;;;;5050991;28;20028;-51
2022/09/17 07:19:40;;;;;;;4.35;1.67;;;8.50;99.90;;;;;;5051419;28;20107;-48
2022/09/17 07:22:07;;;;;;;3.70;1.30;;;9.00;99.90;;;;;;5051113;28;20057;-49
2022/09/17 07:24:33;;;;;;;3.63;1.30;;;9.70;99.90;;;;;;5051635;28;20021;-47
2022/09/17 07:26:58;;;;;;;3.13;1.10;;;10.60;99.90;;;;;;5050765;28;20400;-47
2022/09/17 07:29:27;;;;;;;2.35;1.30;;;11.40;99.90;;;;;;5050424;28;20025;-46
2022/09/17 07:31:53;;;;;;;2.30;1.30;;;12.00;99.90;;;;;;5048545;28;20021;-47
2022/09/17 07:34:19;;;;;;;3.67;1.48;;;12.70;99.90;;;;;;5049921;28;20498;-50
2022/09/17 07:36:45;;;;;;;3.35;1.20;;;13.10;99.90;;;;;;5049889;28;20029;-52
2022/09/17 07:39:12;;;;;;;4.30;1.33;;;13.40;99.90;;;;;;5049743;28;20025;-48
2022/09/17 07:41:38;;;;;;;4.13;1.20;;;13.30;99.90;;;;;;5050239;28;20112;-47
2022/09/17 07:44:06;;;;;;;2.70;1.23;;;13.30;99.90;;;;;;5050361;28;20021;-50
2022/09/17 07:46:32;;;;;;;4.93;1.27;;;13.40;99.90;;;;;;5051528;28;20044;-53
2022/09/17 07:48:57;;;;;;;6.63;1.20;;;13.70;99.90;;;;;;5051850;28;20067;-46
2022/09/17 07:51:27;;;;;;;4.75;1.30;;;14.50;99.90;;;;;;5051358;28;20108;-50
2022/09/17 07:53:59;;;;;;;;;;;15.30;99.90;;;;;;5052008;28;20044;-53
2022/09/17 07:56:26;;;;;;;3.03;1.17;;;16.20;99.70;;;;;;5051268;28;19912;-49
2022/09/17 07:58:52;;;;;;;5.22;2.67;;;16.90;97.40;;;;;;5051498;28;20475;-48
2022/09/17 08:01:19;;;;;;;2.92;1.15;;;17.30;95.60;;;;;;5049917;28;20056;-47
2022/09/17 08:03:53;;;;;;;2.85;1.10;;;17.90;94.10;;;;;;5051537;28;20487;-50
2022/09/17 08:06:29;;;;;;;3.13;1.27;;;18.50;92.70;;;;;;5051523;28;20079;-54
2022/09/17 08:08:57;;;;;;;5.50;1.80;;;19.20;92.90;;;;;;5051193;28;20033;-56
2022/09/17 08:11:26;;;;;;;4.65;1.25;;;19.60;90.70;;;;;;5051234;28;20396;-48
2022/09/17 08:13:52;;;;;;;5.22;1.48;;;20.00;91.40;;;;;;5051221;28;20024;-54
2022/09/17 08:16:20;;;;;;;3.13;1.02;;;20.70;88.90;;;;;;5051206;28;20044;-49
2022/09/17 08:18:46;;;;;;;2.90;1.00;;;21.30;88.50;;;;;;5051135;28;20032;-46
2022/09/17 08:21:15;;;;;;;2.95;1.02;;;21.50;86.70;;;;;;5051245;28;20036;-51
2022/09/17 08:23:42;;;;;;;3.22;1.20;;;22.00;85.10;;;;;;5051153;28;20039;-46
2022/09/17 08:26:15;;;;;;;4.95;1.27;;;22.00;79.10;;;;;;5050923;28;20036;-45
2022/09/17 08:28:44;;;;;;;2.85;1.15;;;22.20;79.80;;;;;;5051064;28;20170;-46
2022/09/17 08:31:11;;;;;;;3.10;1.10;;;22.80;79.60;;;;;;5051049;28;20028;-51
2022/09/17 08:33:39;;;;;;;3.03;1.30;;;23.80;79.00;;;;;;5051344;28;20028;-49
2022/09/17 08:36:07;;;;;;;2.15;1.00;;;24.30;73.40;;;;;;5050893;28;20017;-46
2022/09/17 08:38:38;;;;;;;3.25;1.25;;;24.90;73.10;;;;;;5050875;28;20029;-46
2022/09/17 08:41:09;;;;;;;3.47;1.20;;;25.70;67.20;;;;;;5050922;28;20021;-51
2022/09/17 08:43:44;;;;;;;4.20;1.85;;;26.10;63.80;;;;;;5050855;28;20055;-48
2022/09/17 08:46:10;;;;;;;5.32;1.20;;;26.50;62.20;;;;;;5050626;28;20048;-49
2022/09/17 08:48:44;;;;;;;2.70;1.20;;;26.80;60.10;;;;;;5051113;28;20057;-47
2022/09/17 08:51:53;;;;;;;3.78;1.00;;;27.20;60.40;;;;;;5050721;28;20025;-51
2022/09/17 08:54:37;;;;;;;2.90;1.25;;;27.70;59.90;;;;;;5050570;28;20472;-48
2022/09/17 08:57:20;;;;;;;3.85;0.90;;;28.10;56.80;;;;;;5050462;28;20040;-56
2022/09/17 09:00:15;;;;;;;3.47;0.90;;;28.00;54.80;;;;;;5050592;28;20028;-50
2022/09/17 09:03:04;;;;;;;3.00;1.00;;;28.60;52.60;;;;;;5044811;28;20037;-51
2022/09/17 09:05:47;;;;;;;3.25;0.80;;;28.10;52.50;;;;;;5050575;28;20480;-49
2022/09/17 09:08:36;;;;;;;3.90;1.00;;;28.30;52.20;;;;;;5050552;28;20029;-52
2022/09/17 09:11:06;;;;;;;4.57;0.80;;;28.60;52.00;;;;;;5050764;28;20075;-48
2022/09/17 09:13:44;;;;;;;3.83;0.98;;;28.80;50.60;;;;;;5050653;28;20083;-50
2022/09/17 09:16:31;;;;;;;4.57;0.82;;;28.80;50.40;;;;;;5050707;28;20040;-47
2022/09/17 09:19:09;;;;;;;2.20;0.80;;;29.00;48.30;;;;;;5050270;28;20021;-51
2022/09/17 09:21:59;;;;;;;1.53;0.70;;;29.30;48.90;;;;;;5050336;28;20502;-50
2022/09/17 09:24:31;;;;;;;3.17;0.80;;;29.00;49.90;;;;;;5050536;28;20032;-50
2022/09/17 09:27:35;;;;;;;2.50;0.70;;;29.30;48.90;;;;;;5050328;28;20029;-47
2022/09/17 09:30:03;;;;;;;2.50;0.70;;;28.90;46.80;;;;;;5019379;28;20041;-47
2022/09/17 09:32:31;;;;;;;4.05;0.80;;;29.30;46.10;;;;;;5050429;28;20032;-51
2022/09/17 09:35:02;;;;;;;2.83;0.70;;;29.30;48.00;;;;;;5050564;28;20534;-55
2022/09/17 09:37:31;;;;;;;2.75;0.90;;;29.20;46.40;;;;;;5050416;28;20029;-46
2022/09/17 09:40:15;;;;;;;1.65;0.80;;;28.90;45.80;;;;;;5050287;28;20476;-49
2022/09/17 09:42:42;;;;;;;2.80;0.75;;;29.10;45.90;;;;;;5050290;28;20055;-55
2022/09/17 09:45:32;;;;;;;3.53;0.80;;;28.90;46.70;;;;;;5050131;28;20045;-46
2022/09/17 09:48:11;;;;;;;3.63;1.10;;;29.10;47.40;;;;;;5050247;28;20049;-53
2022/09/17 09:50:43;;;;;;;3.00;0.80;;;29.30;47.50;;;;;;5053628;28;20388;-50
2022/09/17 09:53:14;;;;;;;4.28;0.82;;;28.40;46.80;;;;;;5054028;28;20021;-50
2022/09/17 09:56:10;;;;;;;4.15;1.13;;;29.10;48.90;;;;;;5053708;28;20391;-46
2022/09/17 09:58:38;;;;;;;3.63;1.00;;;28.90;47.60;;;;;;5042412;28;20151;-46
2022/09/17 10:01:13;;;;;;;4.47;1.00;;;29.00;45.20;;;;;;5052861;28;20021;-52
2022/09/17 10:03:41;;;;;;;4.70;0.80;;;28.20;45.20;;;;;;5053679;28;20021;-45
2022/09/17 10:06:08;;;;;;;4.85;1.48;;;28.70;47.30;;;;;;5053521;28;20483;-52
2022/09/17 10:08:40;;;;;;;2.70;0.82;;;29.10;47.70;;;;;;5053720;28;20025;-46
2022/09/17 10:11:12;;;;;;;3.45;0.88;;;29.50;47.10;;;;;;5053771;28;20044;-48
2022/09/17 10:13:38;;;;;;;2.92;0.80;;;29.30;46.50;;;;;;5053728;28;20059;-46
2022/09/17 10:16:18;;;;;;;2.92;0.70;;;29.60;45.20;;;;;;5053742;28;20037;-50
2022/09/17 10:18:46;;;;;;;3.78;0.65;;;29.50;44.20;;;;;;5049988;28;20491;-47
2022/09/17 10:21:21;;;;;;;2.92;0.82;;;29.30;45.50;;;;;;5048870;28;20048;-49
2022/09/17 10:23:49;;;;;;;1.95;0.60;;;29.40;43.80;;;;;;5048366;28;20115;-50
2022/09/17 10:26:28;;;;;;;3.28;0.70;;;29.60;43.90;;;;;;5053367;28;20044;-54
2022/09/17 10:28:57;;;;;;;1.45;0.60;;;29.30;43.60;;;;;;5050849;28;20074;-48
2022/09/17 10:31:22;;;;;;;2.73;0.53;;;28.70;42.00;;;;;;5051546;28;20021;-49
2022/09/17 10:34:01;;;;;;;2.42;0.80;;;28.10;46.30;;;;;;5052501;28;20037;-47
2022/09/17 10:36:43;;;;;;;2.15;0.82;;;28.10;44.60;;;;;;5050508;28;20027;-45
2022/09/17 10:39:45;;;;;;;2.05;0.70;;;28.50;44.30;;;;;;5042442;28;20046;-50
2022/09/17 10:42:11;;;;;;;2.45;0.70;;;28.70;43.90;;;;;;5012855;28;20037;-46
2022/09/17 10:44:37;;;;;;;4.13;0.70;;;27.70;47.30;;;;;;5043402;28;20021;-51
2022/09/17 10:47:20;;;;;;;2.97;0.60;;;27.10;43.10;;;;;;5054471;28;20052;-49
2022/09/17 10:50:07;;;;;;;2.50;0.68;;;27.30;47.60;;;;;;5052513;28;20031;-47
2022/09/17 10:52:36;;;;;;;3.65;0.80;;;27.30;48.40;;;;;;5052348;28;20037;-53
2022/09/17 10:55:32;;;;;;;1.65;0.65;;;27.20;45.10;;;;;;5052527;28;20025;-52
2022/09/17 10:58:07;;;;;;;1.52;0.50;;;27.20;45.60;;;;;;5051966;28;20036;-47
2022/09/17 11:01:21;;;;;;;2.65;0.70;;;27.00;45.90;;;;;;5053231;28;20472;-46
2022/09/17 11:04:02;;;;;;;3.55;0.93;;;27.10;47.10;;;;;;5051498;28;20033;-47
2022/09/17 11:06:46;;;;;;;3.08;0.82;;;27.20;49.20;;;;;;5047158;28;20551;-49
2022/09/17 11:09:57;;;;;;;2.45;0.77;;;26.60;46.90;;;;;;5047440;28;20380;-47
2022/09/17 11:12:26;;;;;;;3.88;1.10;;;25.50;47.30;;;;;;5046316;28;20063;-47
2022/09/17 11:15:35;;;;;;;3.30;0.85;;;25.20;52.10;;;;;;5049162;28;20025;-50
2022/09/17 11:18:03;;;;;;;;;;;25.10;49.10;;;;;;5043317;28;20040;-52
2022/09/17 11:20:47;;;;;;;4.17;0.77;;;25.10;50.40;;;;;;5047713;28;19934;-48
2022/09/17 11:23:43;;;;;;;3.95;0.75;;;24.80;50.80;;;;;;5048090;28;20259;-46
2022/09/17 11:26:44;;;;;;;2.97;0.63;;;24.80;51.20;;;;;;5049635;28;20051;-47
2022/09/17 11:29:21;;;;;;;2.97;0.75;;;24.60;49.50;;;;;;5050453;28;20036;-50
2022/09/17 11:31:59;;;;;;;5.80;0.90;;;24.30;50.30;;;;;;5050568;28;20028;-51
2022/09/17 11:34:41;;;;;;;6.10;0.88;;;23.80;52.10;;;;;;5050492;28;20488;-47
2022/09/17 11:37:19;;;;;;;2.70;0.73;;;23.70;51.60;;;;;;5050860;28;20025;-50
2022/09/17 11:40:11;;;;;;;3.35;1.00;;;24.20;51.70;;;;;;5049839;28;20122;-50
2022/09/17 11:42:44;;;;;;;2.45;0.60;;;24.50;51.50;;;;;;5041820;28;20032;-48
2022/09/17 11:45:32;;;;;;;1.77;0.70;;;24.90;53.80;;;;;;5039183;28;20470;-49
2022/09/17 11:48:03;;;;;;;3.08;1.00;;;25.40;54.10;;;;;;5043774;28;20043;-51
2022/09/17 11:50:36;;;;;;;5.07;1.00;;;25.70;48.40;;;;;;5048596;28;20479;-50
2022/09/17 11:53:22;;;;;;;2.13;0.73;;;26.00;49.80;;;;;;5048213;28;20104;-50
2022/09/17 11:56:08;;;;;;;3.05;0.80;;;25.70;49.70;;;;;;5048656;28;20033;-49
2022/09/17 11:58:59;;;;;;;2.03;0.68;;;25.80;51.10;;;;;;5048167;28;21806;-50
2022/09/17 12:01:36;;;;;;;2.35;0.90;;;25.00;47.90;;;;;;5051947;28;20035;-48
2022/09/17 12:04:34;;;;;;;3.03;0.90;;;25.40;51.60;;;;;;5050098;28;20116;-50
2022/09/17 12:07:24;;;;;;;3.28;0.80;;;26.10;46.60;;;;;;5026718;28;20041;-45
2022/09/17 12:09:59;;;;;;;4.40;0.93;;;26.10;47.20;;;;;;5043556;28;20028;-48
2022/09/17 12:12:27;;;;;;;2.33;0.80;;;26.50;50.00;;;;;;5048939;28;20032;-47
2022/09/17 12:15:06;;;;;;;1.73;0.70;;;26.30;49.20;;;;;;5049653;28;20029;-46
2022/09/17 12:17:48;;;;;;;3.05;1.00;;;25.80;49.00;;;;;;5049265;28;20126;-46
2022/09/17 12:20:30;;;;;;;3.42;0.80;;;24.80;49.60;;;;;;5051152;28;20116;-50
2022/09/17 12:23:01;;;;;;;1.83;0.73;;;24.80;51.20;;;;;;5049722;28;20364;-46
2022/09/17 12:25:32;;;;;;;2.30;0.80;;;24.50;51.50;;;;;;5044416;28;20431;-47
2022/09/17 12:28:16;;;;;;;4.55;1.02;;;24.70;53.90;;;;;;5048312;28;20538;-51
2022/09/17 12:30:48;;;;;;;2.28;0.60;;;24.20;50.60;;;;;;5052342;28;20045;-46
2022/09/17 12:33:39;;;;;;;1.95;0.82;;;23.50;52.70;;;;;;5045574;28;20447;-48
2022/09/17 12:36:29;;;;;;;4.65;1.05;;;23.70;53.60;;;;;;5045233;28;20123;-45
2022/09/17 12:39:23;;;;;;;3.30;1.00;;;23.60;53.80;;;;;;5041388;28;20021;-48
2022/09/17 12:41:51;;;;;;;2.40;0.80;;;23.50;52.70;;;;;;5046089;28;20082;-53
2022/09/17 12:44:46;;;;;;;3.00;0.80;;;23.10;53.50;;;;;;5045475;28;20035;-46
2022/09/17 12:47:34;;;;;;;2.53;0.70;;;22.60;53.20;;;;;;5050741;28;20037;-47
2022/09/17 12:50:12;;;;;;;3.00;0.87;;;22.30;54.70;;;;;;5048004;28;20021;-47
2022/09/17 12:53:01;;;;;;;2.72;0.55;;;22.30;56.30;;;;;;5050155;28;20033;-50
2022/09/17 12:55:46;;;;;;;3.38;0.88;;;22.40;56.70;;;;;;5043983;28;20037;-49
2022/09/17 12:58:20;;;;;;;3.45;1.05;;;22.30;54.90;;;;;;5042892;28;21288;-46
2022/09/17 13:01:01;;;;;;;2.63;0.80;;;22.10;57.30;;;;;;5050950;28;20029;-45
2022/09/17 13:03:41;;;;;;;4.00;0.80;;;22.30;58.70;;;;;;5056696;28;20018;-45
2022/09/17 13:06:31;;;;;;;3.22;0.85;;;22.20;55.70;;;;;;5055631;28;20029;-47
2022/09/17 13:09:27;;;;;;;3.30;0.73;;;22.10;54.10;;;;;;5065685;28;20479;-45
2022/09/17 13:11:56;;;;;;;3.55;0.90;;;22.00;53.20;;;;;;5054697;28;20035;-45
2022/09/17 13:14:53;;;;;;;2.40;0.80;;;21.80;56.70;;;;;;5051816;28;20040;-45
2022/09/17 13:17:38;;;;;;;4.47;0.80;;;21.90;57.00;;;;;;5047644;28;20416;-45
2022/09/17 13:20:24;;;;;;;2.17;0.70;;;21.90;56.10;;;;;;5051304;28;20052;-47
2022/09/17 13:22:53;;;;;;;1.77;0.70;;;21.90;55.90;;;;;;5053926;28;20028;-49
2022/09/17 13:25:21;;;;;;;5.68;1.00;;;21.90;55.50;;;;;;5055718;28;20107;-45